createdAt,value
2022-11-17T00:00:43.484Z,13.27
2022-11-17T00:03:15.996Z,19.20
2022-11-17T00:05:44.859Z,12.85
2022-11-17T00:08:12.861Z,9.15
2022-11-17T00:10:40.646Z,10.77
2022-11-17T00:13:29.407Z,7.80
2022-11-17T00:15:57.237Z,6.32
2022-11-17T00:18:43.209Z,10.52
2022-11-17T00:21:23.933Z,9.70
2022-11-17T00:23:51.796Z,10.35
2022-11-17T00:26:29.517Z,6.63
2022-11-17T00:29:05.068Z,5.93
2022-11-17T00:31:52.804Z,9.90
2022-11-17T00:34:22.809Z,7.85
2022-11-17T00:36:52.838Z,11.77
2022-11-17T00:39:22.572Z,3.88
2022-11-17T00:41:50.592Z,4.38
2022-11-17T00:44:18.432Z,7.88
2022-11-17T00:46:46.014Z,6.45
2022-11-17T00:49:14.732Z,3.33
2022-11-17T00:51:42.614Z,6.53
2022-11-17T00:54:12.510Z,2.75
2022-11-17T00:56:40.698Z,4.68
2022-11-17T00:59:08.442Z,3.28
2022-11-17T01:01:37.031Z,4.65
2022-11-17T01:04:05.751Z,3.92
2022-11-17T01:06:47.408Z,1.92
2022-11-17T01:09:22.322Z,2.28
2022-11-17T01:11:51.955Z,3.92
2022-11-17T01:14:23.073Z,2.22
2022-11-17T01:16:51.852Z,1.83
2022-11-17T01:19:20.383Z,5.20
2022-11-17T01:21:48.156Z,4.75
2022-11-17T01:24:17.019Z,4.35
2022-11-17T01:26:46.260Z,4.38
2022-11-17T01:29:17.371Z,3.00
2022-11-17T01:31:49.607Z,7.15
2022-11-17T01:34:17.285Z,5.20
2022-11-17T01:37:03.672Z,7.00
2022-11-17T01:39:32.135Z,6.35
2022-11-17T01:42:04.834Z,8.48
2022-11-17T01:44:55.732Z,5.20
2022-11-17T01:47:42.453Z,12.52
2022-11-17T01:50:42.441Z,16.40
2022-11-17T01:53:15.592Z,20.10
2022-11-17T01:55:53.520Z,17.90
2022-11-17T01:58:31.774Z,14.88
2022-11-17T02:00:59.511Z,18.95
2022-11-17T02:03:28.047Z,19.77
2022-11-17T02:06:06.665Z,22.67
2022-11-17T02:08:38.749Z,21.95
2022-11-17T02:11:12.096Z,22.00
2022-11-17T02:13:41.184Z,14.07
2022-11-17T02:16:13.763Z,11.23
2022-11-17T02:18:43.266Z,22.30
2022-11-17T02:21:38.537Z,20.83
2022-11-17T02:24:43.137Z,25.55
2022-11-17T02:27:35.999Z,24.88
2022-11-17T02:30:06.287Z,18.25
2022-11-17T02:33:27.133Z,20.90
2022-11-17T02:36:33.565Z,13.25
2022-11-17T02:39:22.854Z,13.43
2022-11-17T02:41:57.233Z,9.65
2022-11-17T02:44:40.158Z,7.10
2022-11-17T02:47:22.654Z,9.93
2022-11-17T02:49:57.238Z,9.82
2022-11-17T02:54:53.114Z,11.63
2022-11-17T02:57:33.640Z,9.32
2022-11-17T03:00:13.331Z,10.45
2022-11-17T03:03:15.121Z,6.63
2022-11-17T03:06:11.366Z,6.18
2022-11-17T03:08:57.711Z,5.38
2022-11-17T03:11:38.846Z,4.60
2022-11-17T03:14:20.982Z,11.63
2022-11-17T03:17:25.865Z,2.60
2022-11-17T03:19:57.808Z,2.42
2022-11-17T03:22:38.815Z,4.05
2022-11-17T03:25:09.432Z,3.13
2022-11-17T03:27:43.104Z,0.73
2022-11-17T03:30:12.546Z,0.77
2022-11-17T03:32:43.965Z,0.25
2022-11-17T03:35:19.903Z,0.10
2022-11-17T03:37:54.898Z,0.98
2022-11-17T03:40:26.468Z,0.20
2022-11-17T03:42:59.915Z,0.10
2022-11-17T03:45:31.247Z,0.80
2022-11-17T03:48:14.549Z,1.13
2022-11-17T03:50:49.779Z,1.85
2022-11-17T03:53:18.071Z,1.20
2022-11-17T03:56:06.005Z,1.45
2022-11-17T03:58:37.585Z,0.00
2022-11-17T04:01:06.202Z,0.10
2022-11-17T04:03:34.942Z,0.35
2022-11-17T04:06:02.792Z,0.65
2022-11-17T04:08:32.036Z,1.38
2022-11-17T04:11:18.348Z,1.25
2022-11-17T04:14:04.189Z,0.65
2022-11-17T04:16:31.794Z,0.63
2022-11-17T04:18:59.441Z,0.45
2022-11-17T04:21:27.206Z,0.85
2022-11-17T04:23:54.897Z,0.22
2022-11-17T04:26:40.805Z,0.52
2022-11-17T04:29:08.969Z,2.25
2022-11-17T04:31:36.575Z,3.13
2022-11-17T04:34:05.971Z,1.27
2022-11-17T04:36:43.513Z,1.15
2022-11-17T04:39:12.662Z,0.98
2022-11-17T04:41:57.702Z,2.38
2022-11-17T04:44:27.811Z,3.05
2022-11-17T04:46:56.361Z,1.27
2022-11-17T04:49:25.629Z,1.23
2022-11-17T04:51:54.515Z,0.63
2022-11-17T04:54:26.921Z,3.80
2022-11-17T04:56:55.411Z,2.28
2022-11-17T04:59:24.070Z,0.30
2022-11-17T05:01:52.042Z,2.40
2022-11-17T05:04:39.635Z,2.88
2022-11-17T05:07:08.475Z,0.90
2022-11-17T05:09:36.963Z,0.80
2022-11-17T05:12:22.781Z,3.85
2022-11-17T05:14:50.652Z,0.57
2022-11-17T05:17:18.752Z,1.17
2022-11-17T05:19:48.423Z,2.05
2022-11-17T05:22:41.839Z,0.75
2022-11-17T05:25:10.405Z,1.20
2022-11-17T05:27:38.559Z,0.82
2022-11-17T05:30:08.550Z,1.48
2022-11-17T05:32:36.440Z,1.70
2022-11-17T05:35:04.723Z,2.53
2022-11-17T05:37:32.577Z,1.50
2022-11-17T05:40:00.242Z,1.13
2022-11-17T05:42:28.002Z,2.80
2022-11-17T05:44:55.713Z,0.60
2022-11-17T05:47:23.583Z,1.98
2022-11-17T05:49:51.562Z,1.75
2022-11-17T05:52:19.395Z,4.25
2022-11-17T05:54:47.125Z,1.17
2022-11-17T05:57:22.623Z,2.50
2022-11-17T05:59:55.261Z,2.75
2022-11-17T06:02:33.533Z,2.08
2022-11-17T06:05:01.953Z,0.82
2022-11-17T06:07:30.019Z,2.05
2022-11-17T06:09:58.108Z,0.55
2022-11-17T06:12:26.173Z,1.38
2022-11-17T06:14:54.011Z,5.13
2022-11-17T06:17:34.582Z,2.22
2022-11-17T06:20:09.865Z,1.80
2022-11-17T06:22:37.576Z,2.58
2022-11-17T06:25:09.330Z,0.65
2022-11-17T06:27:39.194Z,1.48
2022-11-17T06:30:07.795Z,1.58
2022-11-17T06:32:38.155Z,3.55
2022-11-17T06:35:09.123Z,0.80
2022-11-17T06:37:36.804Z,2.70
2022-11-17T06:40:04.896Z,2.45
2022-11-17T06:42:50.885Z,3.80
2022-11-17T06:45:18.516Z,1.65
2022-11-17T06:47:46.135Z,1.95
2022-11-17T06:50:13.915Z,2.25
2022-11-17T06:52:41.642Z,5.82
2022-11-17T06:55:09.550Z,4.13
2022-11-17T06:57:37.341Z,1.70
2022-11-17T07:00:06.515Z,1.95
2022-11-17T07:02:34.422Z,1.98
2022-11-17T07:05:02.352Z,1.05
2022-11-17T07:07:30.106Z,1.80
2022-11-17T07:09:57.847Z,3.85
2022-11-17T07:12:25.470Z,1.63
2022-11-17T07:14:53.354Z,4.82
2022-11-17T07:17:20.961Z,2.97
2022-11-17T07:19:48.663Z,1.23
2022-11-17T07:22:16.377Z,1.48
2022-11-17T07:24:44.014Z,0.80
2022-11-17T07:27:11.826Z,1.95
2022-11-17T07:29:39.599Z,2.50
2022-11-17T07:32:07.279Z,3.33
2022-11-17T07:34:35.043Z,4.32
2022-11-17T07:37:02.848Z,1.30
2022-11-17T07:39:31.288Z,0.65
2022-11-17T07:41:58.976Z,2.35
2022-11-17T07:44:26.529Z,2.67
2022-11-17T07:46:55.417Z,1.23
2022-11-17T07:49:23.164Z,1.10
2022-11-17T07:51:51.186Z,2.60
2022-11-17T07:54:18.969Z,3.13
2022-11-17T07:56:46.910Z,2.15
2022-11-17T07:59:19.983Z,5.45
2022-11-17T08:04:16.627Z,3.28
2022-11-17T08:06:44.354Z,6.00
2022-11-17T08:09:14.479Z,2.47
2022-11-17T08:11:42.207Z,2.10
2022-11-17T08:14:09.954Z,3.05
2022-11-17T08:16:37.629Z,4.25
2022-11-17T08:19:06.360Z,2.58
2022-11-17T08:21:37.758Z,4.68
2022-11-17T08:24:06.044Z,3.60
2022-11-17T08:26:33.807Z,2.47
2022-11-17T08:29:02.113Z,5.30
2022-11-17T08:31:29.956Z,3.88
2022-11-17T08:33:57.648Z,2.78
2022-11-17T08:36:33.671Z,2.42
2022-11-17T08:39:01.537Z,4.60
2022-11-17T08:41:29.324Z,2.88
2022-11-17T08:43:56.990Z,5.32
2022-11-17T08:46:26.635Z,2.92
2022-11-17T08:48:57.076Z,2.45
2022-11-17T08:51:25.272Z,5.78
2022-11-17T08:53:53.122Z,3.10
2022-11-17T08:56:20.885Z,6.28
2022-11-17T08:58:48.652Z,8.10
2022-11-17T09:01:17.158Z,1.70
2022-11-17T09:03:49.464Z,5.05
2022-11-17T09:06:24.750Z,4.90
2022-11-17T09:08:55.618Z,3.83
2022-11-17T09:11:24.121Z,6.10
2022-11-17T09:13:51.885Z,6.68
2022-11-17T09:16:19.893Z,3.83
2022-11-17T09:18:47.812Z,7.30
2022-11-17T09:21:16.690Z,5.20
2022-11-17T09:23:45.044Z,3.83
2022-11-17T09:26:15.594Z,7.18
2022-11-17T09:28:44.508Z,3.90
2022-11-17T09:31:18.751Z,2.58
2022-11-17T09:33:47.219Z,4.30
2022-11-17T09:36:16.429Z,5.20
2022-11-17T09:38:51.402Z,8.13
2022-11-17T09:44:12.883Z,5.30
2022-11-17T09:47:09.430Z,7.07
2022-11-17T09:49:58.955Z,4.22
2022-11-17T09:52:59.693Z,2.45
2022-11-17T09:55:37.427Z,2.92
2022-11-17T09:58:14.372Z,6.95
2022-11-17T10:00:47.610Z,2.22
2022-11-17T10:03:31.484Z,7.28
2022-11-17T10:06:00.939Z,4.25
2022-11-17T10:09:12.026Z,4.30
2022-11-17T10:11:42.970Z,3.10
2022-11-17T10:14:16.166Z,2.38
2022-11-17T10:16:53.396Z,2.17
2022-11-17T10:19:24.860Z,4.70
2022-11-17T10:22:07.426Z,3.45
2022-11-17T10:24:44.114Z,2.90
2022-11-17T10:27:17.859Z,3.13
2022-11-17T10:30:20.529Z,0.80
2022-11-17T10:33:02.540Z,4.07
2022-11-17T10:35:35.897Z,7.43
2022-11-17T10:38:18.885Z,3.95
2022-11-17T10:40:50.566Z,4.88
2022-11-17T10:43:26.376Z,2.83
2022-11-17T10:46:00.989Z,6.93
2022-11-17T10:48:34.577Z,8.43
2022-11-17T10:51:21.244Z,6.88
2022-11-17T10:54:05.637Z,5.07
2022-11-17T10:56:49.798Z,3.13
2022-11-17T10:59:30.340Z,4.50
2022-11-17T11:01:58.397Z,3.50
2022-11-17T11:04:36.750Z,4.93
2022-11-17T11:07:18.207Z,3.15
2022-11-17T11:10:07.983Z,8.10
2022-11-17T11:13:06.589Z,5.85
2022-11-17T11:15:36.743Z,2.88
2022-11-17T11:18:16.762Z,6.60
2022-11-17T11:21:13.967Z,6.65
2022-11-17T11:23:53.077Z,6.18
2022-11-17T11:26:31.199Z,2.03
2022-11-17T11:29:22.187Z,4.38
2022-11-17T11:31:55.899Z,3.70
2022-11-17T11:34:53.583Z,2.83
2022-11-17T11:37:30.135Z,2.97
2022-11-17T11:40:25.843Z,5.35
2022-11-17T11:43:03.023Z,3.92
2022-11-17T11:45:46.161Z,2.28
2022-11-17T11:48:19.879Z,2.45
2022-11-17T11:51:16.543Z,3.78
2022-11-17T11:54:12.661Z,7.35
2022-11-17T11:56:44.552Z,4.80
2022-11-17T11:59:18.847Z,2.53
2022-11-17T12:02:10.864Z,5.90
2022-11-17T12:04:52.872Z,2.42
2022-11-17T12:07:41.647Z,3.95
2022-11-17T12:10:38.196Z,3.70
2022-11-17T12:13:06.063Z,5.70
2022-11-17T12:15:35.512Z,4.03
2022-11-17T12:18:06.188Z,2.30
2022-11-17T12:20:33.603Z,0.95
2022-11-17T12:23:30.743Z,5.10
2022-11-17T12:26:00.681Z,5.00
2022-11-17T12:28:40.334Z,5.20
2022-11-17T12:31:11.723Z,4.90
2022-11-17T12:33:56.486Z,12.75
2022-11-17T12:36:30.562Z,3.45
2022-11-17T12:41:48.815Z,4.35
2022-11-17T12:44:38.621Z,4.32
2022-11-17T12:47:24.198Z,6.55
2022-11-17T12:49:51.735Z,2.30
2022-11-17T12:52:31.718Z,3.60
2022-11-17T12:55:19.212Z,8.55
2022-11-17T12:57:50.761Z,3.88
2022-11-17T13:00:24.014Z,1.98
2022-11-17T13:02:58.060Z,3.40
2022-11-17T13:05:28.298Z,6.65
2022-11-17T13:08:14.299Z,1.83
2022-11-17T13:10:42.013Z,3.63
2022-11-17T13:13:20.637Z,2.45
2022-11-17T13:15:58.852Z,2.85
2022-11-17T13:18:33.220Z,2.63
2022-11-17T13:21:01.668Z,6.95
2022-11-17T13:23:32.367Z,4.18
2022-11-17T13:26:22.025Z,3.58
2022-11-17T13:29:11.391Z,2.65
2022-11-17T13:31:39.220Z,4.75
2022-11-17T13:34:19.022Z,4.30
2022-11-17T13:36:57.944Z,4.45
2022-11-17T13:39:27.903Z,2.63
2022-11-17T13:41:58.210Z,4.80
2022-11-17T13:44:28.455Z,3.92
2022-11-17T13:46:56.302Z,7.05
2022-11-17T13:49:34.967Z,4.88
2022-11-17T13:52:04.224Z,2.05
2022-11-17T13:54:32.732Z,1.70
2022-11-17T13:57:08.132Z,1.85
2022-11-17T13:59:38.737Z,2.58
2022-11-17T14:02:21.513Z,5.75
2022-11-17T14:05:15.220Z,4.60
2022-11-17T14:07:44.621Z,9.57
2022-11-17T14:10:21.433Z,8.13
2022-11-17T14:13:02.520Z,2.38
2022-11-17T14:15:36.857Z,3.97
2022-11-17T14:18:18.779Z,2.75
2022-11-17T14:20:46.466Z,1.10
2022-11-17T14:23:18.015Z,4.35
2022-11-17T14:25:50.300Z,3.53
2022-11-17T14:28:20.854Z,4.25
2022-11-17T14:30:51.022Z,2.10
2022-11-17T14:33:18.866Z,5.72
2022-11-17T14:35:50.416Z,1.40
2022-11-17T14:38:20.582Z,2.42
2022-11-17T14:40:52.504Z,1.10
2022-11-17T14:43:21.388Z,3.08
2022-11-17T14:45:50.391Z,1.48
2022-11-17T14:48:19.607Z,0.40
2022-11-17T14:50:48.433Z,3.67
2022-11-17T14:53:15.988Z,2.75
2022-11-17T14:55:43.541Z,2.22
2022-11-17T14:58:11.256Z,1.70
2022-11-17T15:00:38.827Z,6.75
2022-11-17T15:03:06.400Z,3.10
2022-11-17T15:05:34.116Z,2.08
2022-11-17T15:08:01.663Z,1.33
2022-11-17T15:10:29.234Z,1.30
2022-11-17T15:12:56.675Z,4.03
2022-11-17T15:15:24.239Z,4.57
2022-11-17T15:17:51.806Z,5.45
2022-11-17T15:20:19.344Z,3.08
2022-11-17T15:22:46.915Z,2.20
2022-11-17T15:25:14.792Z,2.25
2022-11-17T15:27:42.482Z,4.00
2022-11-17T15:30:10.403Z,1.00
2022-11-17T15:32:37.980Z,4.35
2022-11-17T15:35:06.432Z,2.75
2022-11-17T15:37:33.899Z,3.33
2022-11-17T15:40:01.654Z,2.15
2022-11-17T15:42:29.353Z,4.20
2022-11-17T15:44:57.357Z,2.55
2022-11-17T15:47:24.989Z,2.13
2022-11-17T15:49:58.598Z,1.15
2022-11-17T15:52:48.577Z,4.20
2022-11-17T15:55:17.211Z,2.83
2022-11-17T15:57:44.972Z,0.70
2022-11-17T16:00:13.666Z,4.53
2022-11-17T16:02:42.257Z,0.93
2022-11-17T16:05:10.070Z,1.90
2022-11-17T16:07:40.418Z,3.00
2022-11-17T16:10:08.592Z,1.55
2022-11-17T16:12:39.180Z,4.10
2022-11-17T16:15:09.727Z,1.65
2022-11-17T16:17:37.783Z,5.22
2022-11-17T16:20:06.500Z,4.38
2022-11-17T16:22:37.456Z,0.80
2022-11-17T16:25:10.927Z,4.90
2022-11-17T16:27:42.224Z,3.50
2022-11-17T16:30:10.414Z,4.25
2022-11-17T16:32:39.188Z,6.45
2022-11-17T16:35:12.295Z,3.97
2022-11-17T16:37:41.672Z,1.15
2022-11-17T16:40:10.466Z,7.93
2022-11-17T16:42:41.426Z,6.88
2022-11-17T16:45:12.403Z,1.60
2022-11-17T16:47:43.709Z,3.40
2022-11-17T16:50:13.276Z,5.63
2022-11-17T16:52:44.884Z,4.85
2022-11-17T16:55:19.120Z,1.60
2022-11-17T16:57:46.721Z,3.63
2022-11-17T17:00:15.264Z,1.88
2022-11-17T17:02:43.688Z,2.95
2022-11-17T17:05:11.273Z,4.30
2022-11-17T17:07:57.942Z,7.45
2022-11-17T17:10:26.905Z,8.10
2022-11-17T17:12:54.528Z,4.43
2022-11-17T17:15:22.223Z,2.83
2022-11-17T17:17:49.933Z,7.10
2022-11-17T17:20:17.678Z,3.25
2022-11-17T17:22:45.534Z,3.10
2022-11-17T17:25:14.531Z,5.18
2022-11-17T17:27:42.209Z,2.80
2022-11-17T17:30:10.759Z,2.50
2022-11-17T17:32:38.375Z,8.10
2022-11-17T17:35:07.019Z,2.90
2022-11-17T17:37:34.593Z,1.95
2022-11-17T17:40:02.133Z,4.53
2022-11-17T17:42:29.669Z,2.58
2022-11-17T17:44:57.309Z,2.47
2022-11-17T17:47:24.967Z,3.92
2022-11-17T17:49:52.517Z,2.92
2022-11-17T17:52:20.409Z,1.83
2022-11-17T17:54:47.959Z,6.18
2022-11-17T17:57:15.556Z,3.25
2022-11-17T17:59:43.105Z,8.98
2022-11-17T18:02:10.658Z,5.78
2022-11-17T18:04:38.464Z,4.25
2022-11-17T18:07:06.030Z,7.15
2022-11-17T18:09:33.733Z,8.40
2022-11-17T18:12:01.338Z,3.45
2022-11-17T18:14:28.906Z,5.32
2022-11-17T18:16:56.710Z,5.82
2022-11-17T18:19:29.747Z,3.63
2022-11-17T18:22:06.203Z,5.18
2022-11-17T18:24:34.714Z,7.55
2022-11-17T18:27:02.754Z,2.80
2022-11-17T18:29:31.276Z,2.40
2022-11-17T18:31:58.877Z,3.90
2022-11-17T18:34:26.739Z,10.05
2022-11-17T18:36:56.786Z,4.32
2022-11-17T18:39:24.801Z,4.78
2022-11-17T18:41:52.389Z,6.63
2022-11-17T18:44:20.032Z,5.00
2022-11-17T18:46:48.319Z,4.53
2022-11-17T18:49:16.429Z,8.27
2022-11-17T18:51:44.317Z,1.63
2022-11-17T18:54:13.299Z,1.92
2022-11-17T18:56:41.523Z,3.58
2022-11-17T18:59:12.748Z,3.35
2022-11-17T19:01:42.241Z,2.42
2022-11-17T19:04:13.004Z,3.50
2022-11-17T19:06:41.048Z,4.43
2022-11-17T19:09:09.115Z,2.40
2022-11-17T19:11:37.234Z,7.20
2022-11-17T19:14:06.253Z,4.68
2022-11-17T19:16:44.424Z,6.03
2022-11-17T19:19:14.236Z,5.50
2022-11-17T19:21:43.179Z,5.05
2022-11-17T19:24:11.447Z,5.38
2022-11-17T19:26:39.582Z,4.90
2022-11-17T19:29:16.151Z,4.68
2022-11-17T19:31:46.502Z,6.25
2022-11-17T19:34:17.672Z,5.43
2022-11-17T19:36:45.687Z,5.25
2022-11-17T19:39:19.610Z,8.00
2022-11-17T19:41:47.881Z,4.18
2022-11-17T19:44:16.046Z,3.30
2022-11-17T19:46:44.069Z,3.28
2022-11-17T19:49:12.601Z,3.47
2022-11-17T19:51:41.958Z,7.75
2022-11-17T19:54:12.447Z,6.07
2022-11-17T19:56:40.500Z,5.68
2022-11-17T19:59:12.476Z,4.90
2022-11-17T20:01:44.982Z,6.10
2022-11-17T20:04:12.949Z,2.03
2022-11-17T20:06:41.251Z,4.85
2022-11-17T20:09:12.050Z,4.70
2022-11-17T20:11:40.523Z,4.75
2022-11-17T20:14:08.301Z,6.95
2022-11-17T20:16:37.254Z,4.93
2022-11-17T20:19:05.296Z,8.60
2022-11-17T20:21:34.997Z,7.40
2022-11-17T20:24:03.524Z,3.08
2022-11-17T20:26:33.269Z,3.40
2022-11-17T20:29:01.589Z,3.55
2022-11-17T20:31:59.947Z,4.82
2022-11-17T20:34:30.192Z,5.30
2022-11-17T20:36:58.065Z,2.63
2022-11-17T20:39:26.131Z,11.65
2022-11-17T20:41:53.660Z,8.63
2022-11-17T20:44:24.193Z,14.13
2022-11-17T20:46:56.137Z,5.93
2022-11-17T20:49:24.930Z,3.22
2022-11-17T20:51:52.913Z,12.55
2022-11-17T20:54:20.661Z,6.00
2022-11-17T20:56:48.443Z,4.82
2022-11-17T20:59:20.019Z,14.98
2022-11-17T21:01:49.593Z,4.22
2022-11-17T21:04:17.750Z,6.50
2022-11-17T21:06:45.532Z,15.57
2022-11-17T21:09:13.080Z,3.13
2022-11-17T21:11:58.909Z,3.97
2022-11-17T21:14:27.880Z,9.88
2022-11-17T21:16:57.784Z,5.25
2022-11-17T21:19:25.589Z,9.18
2022-11-17T21:21:53.911Z,7.90
2022-11-17T21:24:22.814Z,8.15
2022-11-17T21:26:54.843Z,5.03
2022-11-17T21:29:22.817Z,8.25
2022-11-17T21:31:52.204Z,5.90
2022-11-17T21:34:19.720Z,7.32
2022-11-17T21:36:47.560Z,7.90
2022-11-17T21:39:18.527Z,6.90
2022-11-17T21:41:46.503Z,3.25
2022-11-17T21:47:32.215Z,11.20
2022-11-17T21:50:00.065Z,10.60
2022-11-17T21:52:27.736Z,10.90
2022-11-17T21:54:55.627Z,5.10
2022-11-17T21:57:23.440Z,3.83
2022-11-17T21:59:51.343Z,5.30
2022-11-17T22:02:19.365Z,7.30
2022-11-17T22:04:47.384Z,3.33
2022-11-17T22:07:15.250Z,3.85
2022-11-17T22:09:43.009Z,4.47
2022-11-17T22:12:10.661Z,2.67
2022-11-17T22:14:38.426Z,9.20
2022-11-17T22:17:06.205Z,9.27
2022-11-17T22:19:34.057Z,4.07
2022-11-17T22:22:01.713Z,4.53
2022-11-17T22:24:29.355Z,4.88
2022-11-17T22:26:57.019Z,4.90
2022-11-17T22:29:24.912Z,4.82
2022-11-17T22:31:52.710Z,7.35
2022-11-17T22:34:20.344Z,4.97
2022-11-17T22:36:47.960Z,9.95
2022-11-17T22:39:16.683Z,5.68
2022-11-17T22:41:44.816Z,5.25
2022-11-17T22:44:16.301Z,6.63
2022-11-17T22:46:44.198Z,5.72
2022-11-17T22:49:12.545Z,5.53
2022-11-17T22:51:58.892Z,3.33
2022-11-17T22:54:26.490Z,2.92
2022-11-17T22:56:54.057Z,2.75
2022-11-17T22:59:23.695Z,4.93
2022-11-17T23:01:51.226Z,2.40
2022-11-17T23:04:18.733Z,5.72
2022-11-17T23:06:46.398Z,7.47
2022-11-17T23:09:14.426Z,4.20
2022-11-17T23:11:43.169Z,3.67
2022-11-17T23:14:13.546Z,3.80
2022-11-17T23:16:41.363Z,7.20
2022-11-17T23:19:12.837Z,5.25
2022-11-17T23:21:41.119Z,5.38
2022-11-17T23:24:13.136Z,5.75
2022-11-17T23:26:42.001Z,5.10
2022-11-17T23:29:09.611Z,7.07
2022-11-17T23:31:37.210Z,9.88
2022-11-17T23:34:04.805Z,6.07
2022-11-17T23:36:32.493Z,5.90
2022-11-17T23:39:00.105Z,5.43
2022-11-17T23:41:28.977Z,6.70
2022-11-17T23:43:56.702Z,4.03
2022-11-17T23:46:25.924Z,6.50
2022-11-17T23:48:54.827Z,7.35
2022-11-17T23:51:24.368Z,5.35
2022-11-17T23:53:53.098Z,6.18
2022-11-17T23:56:21.083Z,10.70
2022-11-17T23:58:49.698Z,4.03
